메인 페이지
METAR-TAF:

METAR-TAF

공항 :

Lethbridge, 앨버타, 캐나다

위도: 49-38N, 경도: 112-48W, 고도: 929m

현재 날씨관측

예보는 36분 전, 10:00시(UTC)에 발표되었습니다.
서남서5kt
온도 -31°C
습도 75%
기압 1029 hPa
시정: 14.5km
맑음

METAR: CYQL 181000Z AUTO 24005KT 9SM CLR M31/M34 A3038 RMK SLP404

시각: 03:36 (10:36 UTC)

예보

예보는 4 시간 57분 전, 05:39시(UTC)에 발표되었습니다.
예보 대상 시간: 18일 06시부터 18일 18시까지 (UTC)
여러 방향의 바람 3kt
시정: 10km
고도 25000ft 상공 구름 조금
전환 중
18일 10시부터 18일 12시까지 (UTC)
서남서6kt
18일 1600시부터 (UTC)
서남서6kt
시정: 10km
고도 12000ft 상공 구름 보통
고도 24000ft 상공 구름 많음

TAF: CYQL 180539Z 1806/1818 VRB03KT P6SM FEW250 BECMG 1810/1812 25006KT FM181600 25006KT P6SM SCT120 BKN240 RMK FCST BASED ON AUTO OBS. NXT FCST BY 181200Z

4,000개 이상의 공항 관측 자료 및 예보 (METAR 및 TAF 보고).

지도상에서 검색 가능한 기상관측소가 노란 점과 빨간 점으로 표시되어 있습니다.

기상관측소 명을 보려면 표시 위로 마우스를 이동하세요.

날씨 관측과 예보를 보려면 클릭하세요.

지도 변경 : 확대하려면 엑스 표시가 있는 녹색 버튼, 축소하려면 빼기 표시가 있는 녹색 버튼, 다음 페이지의 지도를 보려면 녹색 화살표를 클릭하세요.


METAR-TAF: